createdAt,value
2023-09-29T00:00:19.135Z,12.51
2023-09-29T00:02:48.754Z,12.48
2023-09-29T00:05:19.221Z,12.57
2023-09-29T00:07:46.602Z,12.54
2023-09-29T00:10:17.772Z,12.53
2023-09-29T00:12:45.618Z,12.53
2023-09-29T00:15:12.777Z,12.51
2023-09-29T00:17:39.965Z,12.35
2023-09-29T00:20:33.498Z,12.48
2023-09-29T00:23:02.557Z,12.30
2023-09-29T00:25:29.733Z,12.26
2023-09-29T00:27:58.250Z,12.26
2023-09-29T00:30:25.141Z,12.24
2023-09-29T00:32:53.971Z,12.13
2023-09-29T00:35:30.594Z,12.10
2023-09-29T00:38:02.451Z,12.05
2023-09-29T00:40:30.898Z,12.00
2023-09-29T00:42:59.112Z,12.00
2023-09-29T00:45:29.468Z,11.96
2023-09-29T00:47:59.996Z,12.01
2023-09-29T00:50:31.236Z,12.06
2023-09-29T00:53:01.131Z,11.91
2023-09-29T00:55:30.101Z,11.88
2023-09-29T00:58:00.837Z,11.90
2023-09-29T01:00:29.622Z,11.91
2023-09-29T01:03:08.028Z,11.79
2023-09-29T01:05:40.821Z,11.78
2023-09-29T01:08:14.078Z,11.80
2023-09-29T01:10:45.777Z,11.80
2023-09-29T01:13:14.164Z,11.76
2023-09-29T01:15:41.222Z,11.70
2023-09-29T01:18:13.280Z,11.71
2023-09-29T01:20:41.142Z,11.73
2023-09-29T01:23:09.758Z,11.61
2023-09-29T01:25:37.173Z,11.68
2023-09-29T01:28:14.967Z,11.61
2023-09-29T01:30:45.045Z,11.66
2023-09-29T01:33:12.150Z,11.64
2023-09-29T01:35:41.091Z,11.62
2023-09-29T01:38:07.959Z,11.59
2023-09-29T01:40:34.862Z,11.54
2023-09-29T01:43:02.459Z,11.45
2023-09-29T01:45:29.362Z,11.43
2023-09-29T01:47:56.723Z,11.40
2023-09-29T01:50:24.429Z,11.41
2023-09-29T01:52:52.539Z,11.37
2023-09-29T01:55:25.953Z,11.32
2023-09-29T01:57:57.284Z,11.34
2023-09-29T02:00:27.147Z,11.37
2023-09-29T02:02:55.893Z,11.34
2023-09-29T02:05:24.513Z,11.35
2023-09-29T02:07:51.653Z,11.32
2023-09-29T02:10:22.483Z,11.20
2023-09-29T02:13:00.284Z,11.26
2023-09-29T02:15:29.255Z,11.08
2023-09-29T02:17:56.267Z,11.08
2023-09-29T02:20:27.228Z,11.04
2023-09-29T02:22:56.451Z,11.01
2023-09-29T02:25:27.297Z,10.96
2023-09-29T02:27:58.532Z,11.05
2023-09-29T02:30:27.195Z,11.08
2023-09-29T02:32:54.079Z,11.04
2023-09-29T02:35:21.432Z,10.96
2023-09-29T02:37:48.652Z,10.92
2023-09-29T02:40:16.523Z,10.87
2023-09-29T02:42:45.802Z,10.79
2023-09-29T02:45:12.881Z,10.81
2023-09-29T02:47:43.774Z,10.83
2023-09-29T02:50:12.149Z,10.76
2023-09-29T02:52:39.830Z,10.81
2023-09-29T02:55:10.093Z,10.76
2023-09-29T02:57:36.837Z,10.68
2023-09-29T03:00:21.207Z,10.61
2023-09-29T03:02:49.218Z,10.60
2023-09-29T03:05:17.293Z,10.66
2023-09-29T03:07:44.596Z,10.58
2023-09-29T03:10:17.110Z,10.66
2023-09-29T03:12:45.583Z,10.65
2023-09-29T03:15:15.033Z,10.72
2023-09-29T03:17:42.703Z,10.55
2023-09-29T03:20:13.006Z,10.53
2023-09-29T03:22:41.868Z,10.63
2023-09-29T03:25:11.175Z,10.66
2023-09-29T03:27:41.172Z,10.66
2023-09-29T03:30:11.980Z,10.64
2023-09-29T03:32:38.750Z,10.65
2023-09-29T03:35:10.379Z,10.63
2023-09-29T03:37:38.953Z,10.51
2023-09-29T03:40:10.227Z,10.43
2023-09-29T03:42:38.686Z,10.41
2023-09-29T03:45:07.073Z,10.47
2023-09-29T03:47:35.270Z,10.49
2023-09-29T03:50:03.360Z,10.49
2023-09-29T03:52:33.713Z,10.47
2023-09-29T03:55:00.481Z,10.37
2023-09-29T03:57:27.113Z,10.28
2023-09-29T03:59:53.841Z,10.32
2023-09-29T04:02:22.068Z,10.19
2023-09-29T04:04:48.924Z,10.20
2023-09-29T04:07:17.014Z,10.18
2023-09-29T04:09:43.786Z,10.18
2023-09-29T04:12:10.454Z,10.11
2023-09-29T04:14:37.469Z,10.11
2023-09-29T04:17:06.126Z,10.05
2023-09-29T04:19:33.733Z,10.14
2023-09-29T04:22:01.279Z,10.16
2023-09-29T04:24:28.401Z,10.16
2023-09-29T04:26:55.380Z,10.14
2023-09-29T04:29:23.136Z,10.13
2023-09-29T04:31:49.787Z,10.20
2023-09-29T04:34:17.102Z,10.19
2023-09-29T04:36:43.963Z,10.21
2023-09-29T04:39:10.817Z,10.18
2023-09-29T04:41:38.955Z,10.12
2023-09-29T04:44:06.882Z,10.20
2023-09-29T04:46:35.737Z,10.11
2023-09-29T04:49:05.425Z,10.21
2023-09-29T04:51:38.016Z,10.19
2023-09-29T04:54:05.136Z,10.20
2023-09-29T04:56:32.935Z,10.25
2023-09-29T04:58:59.525Z,10.22
2023-09-29T05:01:27.573Z,10.21
2023-09-29T05:03:57.644Z,10.29
2023-09-29T05:06:25.582Z,10.41
2023-09-29T05:08:52.791Z,10.54
2023-09-29T05:11:24.087Z,10.55
2023-09-29T05:13:51.656Z,10.57
2023-09-29T05:16:18.981Z,10.66
2023-09-29T05:18:46.279Z,10.77
2023-09-29T05:21:13.252Z,10.80
2023-09-29T05:23:40.456Z,10.74
2023-09-29T05:26:08.926Z,10.78
2023-09-29T05:28:36.674Z,10.74
2023-09-29T05:31:06.526Z,10.74
2023-09-29T05:33:33.631Z,10.88
2023-09-29T05:36:00.852Z,11.00
2023-09-29T05:38:27.946Z,10.97
2023-09-29T05:40:54.653Z,10.90
2023-09-29T05:43:22.336Z,10.88
2023-09-29T05:45:49.460Z,10.88
2023-09-29T05:48:16.864Z,10.75
2023-09-29T05:50:43.880Z,10.90
2023-09-29T05:53:11.422Z,10.80
2023-09-29T05:55:39.515Z,10.94
2023-09-29T05:58:06.558Z,11.04
2023-09-29T06:00:33.345Z,10.81
2023-09-29T06:03:01.216Z,10.97
2023-09-29T06:05:30.229Z,11.02
2023-09-29T06:07:58.977Z,11.17
2023-09-29T06:10:26.505Z,11.15
2023-09-29T06:12:53.373Z,11.02
2023-09-29T06:15:20.597Z,11.18
2023-09-29T06:17:47.388Z,11.37
2023-09-29T06:20:14.244Z,11.37
2023-09-29T06:22:40.972Z,11.55
2023-09-29T06:25:07.944Z,11.73
2023-09-29T06:27:34.577Z,11.71
2023-09-29T06:30:01.282Z,11.69
2023-09-29T06:32:28.089Z,11.84
2023-09-29T06:34:54.921Z,12.04
2023-09-29T06:37:21.671Z,12.05
2023-09-29T06:39:48.281Z,12.20
2023-09-29T06:42:14.974Z,12.22
2023-09-29T06:44:41.698Z,12.56
2023-09-29T06:47:08.414Z,12.62
2023-09-29T06:49:35.061Z,12.60
2023-09-29T06:52:01.920Z,12.56
2023-09-29T06:54:28.751Z,12.58
2023-09-29T06:56:55.584Z,12.66
2023-09-29T06:59:22.687Z,12.75
2023-09-29T07:01:49.445Z,12.85
2023-09-29T07:04:16.315Z,13.11
2023-09-29T07:06:43.430Z,12.98
2023-09-29T07:09:11.821Z,13.05
2023-09-29T07:11:41.816Z,13.04
2023-09-29T07:14:08.437Z,12.85
2023-09-29T07:16:35.053Z,13.17
2023-09-29T07:19:05.532Z,13.36
2023-09-29T07:21:32.193Z,13.38
2023-09-29T07:23:59.036Z,13.10
2023-09-29T07:26:27.462Z,13.18
2023-09-29T07:28:56.156Z,13.48
2023-09-29T07:31:22.919Z,13.54
2023-09-29T07:33:49.842Z,13.59
2023-09-29T07:36:16.835Z,13.54
2023-09-29T07:38:43.519Z,13.44
2023-09-29T07:41:10.119Z,13.65
2023-09-29T07:43:36.748Z,13.93
2023-09-29T07:46:04.209Z,13.72
2023-09-29T07:48:30.940Z,14.23
2023-09-29T07:50:57.700Z,14.26
2023-09-29T07:53:24.334Z,14.50
2023-09-29T07:55:50.939Z,14.63
2023-09-29T07:58:17.540Z,14.39
2023-09-29T08:00:44.387Z,14.52
2023-09-29T08:03:11.147Z,14.81
2023-09-29T08:05:37.922Z,15.00
2023-09-29T08:08:06.132Z,14.95
2023-09-29T08:10:33.452Z,15.16
2023-09-29T08:13:00.080Z,15.30
2023-09-29T08:15:27.160Z,15.35
2023-09-29T08:17:53.847Z,15.56
2023-09-29T08:20:21.821Z,15.52
2023-09-29T08:22:50.535Z,15.77
2023-09-29T08:25:19.025Z,15.76
2023-09-29T08:27:45.918Z,16.10
2023-09-29T08:30:13.101Z,16.05
2023-09-29T08:32:40.926Z,16.03
2023-09-29T08:35:08.012Z,16.25
2023-09-29T08:37:34.634Z,16.35
2023-09-29T08:40:01.413Z,16.72
2023-09-29T08:42:39.598Z,16.80
2023-09-29T08:45:13.398Z,16.94
2023-09-29T08:47:42.205Z,17.24
2023-09-29T08:50:13.419Z,17.27
2023-09-29T08:52:46.290Z,17.41
2023-09-29T08:55:14.183Z,17.43
2023-09-29T08:57:43.473Z,17.36
2023-09-29T09:00:14.588Z,17.64
2023-09-29T09:02:45.462Z,17.72
2023-09-29T09:05:14.559Z,17.92
2023-09-29T09:07:42.410Z,18.07
2023-09-29T09:10:22.790Z,18.13
2023-09-29T09:12:57.283Z,18.06
2023-09-29T09:15:27.882Z,18.16
2023-09-29T09:17:56.102Z,18.53
2023-09-29T09:20:23.297Z,18.72
2023-09-29T09:23:01.178Z,18.85
2023-09-29T09:25:46.199Z,18.84
2023-09-29T09:28:21.383Z,18.81
2023-09-29T09:31:02.781Z,18.85
2023-09-29T09:33:30.036Z,19.16
2023-09-29T09:36:12.484Z,19.28
2023-09-29T09:38:39.805Z,19.28
2023-09-29T09:41:07.635Z,19.50
2023-09-29T09:43:39.101Z,19.71
2023-09-29T09:46:14.191Z,19.75
2023-09-29T09:49:08.999Z,19.95
2023-09-29T09:51:37.478Z,20.04
2023-09-29T09:54:05.450Z,20.08
2023-09-29T09:56:47.121Z,20.52
2023-09-29T09:59:15.306Z,20.71
2023-09-29T10:01:42.405Z,20.56
2023-09-29T10:04:13.752Z,20.65
2023-09-29T10:06:48.106Z,20.61
2023-09-29T10:09:14.908Z,20.65
2023-09-29T10:11:45.737Z,20.71
2023-09-29T10:14:12.445Z,20.73
2023-09-29T10:16:42.365Z,20.98
2023-09-29T10:19:12.262Z,21.08
2023-09-29T10:21:52.034Z,21.62
2023-09-29T10:24:27.242Z,21.89
2023-09-29T10:26:54.011Z,22.16
2023-09-29T10:29:25.683Z,22.53
2023-09-29T10:31:52.890Z,22.22
2023-09-29T10:34:22.564Z,22.46
2023-09-29T10:36:57.229Z,22.02
2023-09-29T10:39:28.618Z,22.22
2023-09-29T10:41:59.627Z,22.43
2023-09-29T10:44:30.271Z,22.83
2023-09-29T10:46:56.982Z,23.17
2023-09-29T10:49:33.653Z,23.39
2023-09-29T10:52:00.430Z,23.56
2023-09-29T10:54:27.754Z,23.43
2023-09-29T10:56:55.065Z,23.36
2023-09-29T10:59:21.890Z,23.45
2023-09-29T11:01:48.725Z,23.50
2023-09-29T11:04:15.594Z,23.21
2023-09-29T11:06:48.418Z,23.41
2023-09-29T11:09:17.830Z,23.54
2023-09-29T11:11:44.772Z,23.47
2023-09-29T11:14:11.510Z,23.82
2023-09-29T11:16:38.298Z,23.93
2023-09-29T11:19:12.366Z,23.72
2023-09-29T11:21:40.965Z,23.75
2023-09-29T11:24:20.242Z,23.96
2023-09-29T11:26:51.594Z,23.92
2023-09-29T11:29:26.217Z,23.98
2023-09-29T11:31:54.984Z,23.88
2023-09-29T11:34:23.282Z,24.19
2023-09-29T11:36:51.121Z,24.48
2023-09-29T11:39:20.377Z,24.18
2023-09-29T11:41:47.576Z,24.21
2023-09-29T11:44:15.568Z,24.42
2023-09-29T11:46:42.281Z,24.50
2023-09-29T11:49:08.936Z,24.68
2023-09-29T11:51:38.589Z,24.68
2023-09-29T11:54:06.121Z,25.38
2023-09-29T11:56:33.400Z,25.09
2023-09-29T11:59:00.422Z,24.99
2023-09-29T12:01:28.888Z,25.18
2023-09-29T12:03:57.075Z,25.20
2023-09-29T12:06:24.097Z,25.49
2023-09-29T12:08:50.919Z,25.44
2023-09-29T12:11:20.925Z,25.08
2023-09-29T12:13:49.292Z,25.25
2023-09-29T12:16:17.189Z,25.03
2023-09-29T12:18:44.624Z,24.92
2023-09-29T12:21:13.380Z,24.96
2023-09-29T12:23:40.673Z,25.12
2023-09-29T12:26:08.084Z,25.13
2023-09-29T12:28:36.925Z,24.87
2023-09-29T12:31:04.331Z,25.28
2023-09-29T12:33:31.483Z,25.12
2023-09-29T12:35:58.310Z,25.10
2023-09-29T12:38:24.990Z,24.96
2023-09-29T12:40:52.040Z,25.20
2023-09-29T12:43:18.995Z,25.22
2023-09-29T12:45:45.620Z,25.55
2023-09-29T12:48:12.436Z,25.63
2023-09-29T12:50:40.860Z,25.73
2023-09-29T12:53:07.903Z,25.80
2023-09-29T12:55:34.629Z,25.60
2023-09-29T12:58:08.106Z,25.49
2023-09-29T13:00:37.973Z,25.61
2023-09-29T13:03:08.844Z,25.67
2023-09-29T13:05:39.170Z,25.62
2023-09-29T13:08:06.727Z,25.48
2023-09-29T13:10:37.528Z,25.44
2023-09-29T13:13:07.006Z,26.09
2023-09-29T13:15:34.418Z,25.97
2023-09-29T13:18:01.339Z,25.79
2023-09-29T13:20:28.558Z,25.97
2023-09-29T13:22:56.058Z,25.74
2023-09-29T13:25:22.879Z,25.67
2023-09-29T13:27:49.833Z,26.05
2023-09-29T13:30:18.215Z,25.81
2023-09-29T13:32:45.534Z,25.86
2023-09-29T13:35:12.249Z,25.61
2023-09-29T13:37:39.237Z,25.98
2023-09-29T13:40:07.643Z,25.72
2023-09-29T13:42:36.603Z,25.80
2023-09-29T13:45:06.802Z,25.86
2023-09-29T13:47:34.598Z,25.74
2023-09-29T13:50:02.312Z,25.84
2023-09-29T13:52:29.917Z,25.78
2023-09-29T13:54:56.788Z,25.77
2023-09-29T13:57:24.620Z,25.64
2023-09-29T13:59:51.560Z,26.27
2023-09-29T14:02:18.638Z,26.35
2023-09-29T14:04:45.620Z,26.38
2023-09-29T14:07:12.524Z,26.54
2023-09-29T14:09:40.726Z,26.48
2023-09-29T14:12:10.235Z,26.06
2023-09-29T14:14:37.838Z,26.15
2023-09-29T14:17:06.277Z,26.05
2023-09-29T14:19:33.990Z,26.06
2023-09-29T14:22:00.744Z,26.10
2023-09-29T14:24:27.450Z,26.30
2023-09-29T14:26:54.292Z,26.26
2023-09-29T14:29:21.594Z,26.12
2023-09-29T14:31:48.735Z,26.00
2023-09-29T14:34:17.160Z,26.15
2023-09-29T14:36:44.543Z,26.03
2023-09-29T14:39:11.251Z,26.21
2023-09-29T14:41:41.720Z,26.12
2023-09-29T14:44:08.781Z,26.01
2023-09-29T14:46:35.502Z,25.91
2023-09-29T14:49:03.846Z,25.83
2023-09-29T14:51:33.387Z,25.92
2023-09-29T14:54:00.993Z,25.78
2023-09-29T14:56:27.579Z,25.77
2023-09-29T14:58:54.435Z,25.80
2023-09-29T15:01:21.339Z,25.67
2023-09-29T15:03:49.810Z,25.65
2023-09-29T15:06:16.975Z,25.60
2023-09-29T15:08:44.995Z,25.62
2023-09-29T15:11:17.934Z,25.70
2023-09-29T15:13:44.571Z,25.64
2023-09-29T15:16:18.164Z,25.57
2023-09-29T15:18:50.751Z,25.65
2023-09-29T15:21:18.132Z,25.56
2023-09-29T15:23:45.012Z,25.48
2023-09-29T15:26:13.271Z,25.59
2023-09-29T15:28:39.890Z,25.57
2023-09-29T15:31:07.578Z,25.54
2023-09-29T15:33:34.709Z,25.54
2023-09-29T15:36:02.552Z,25.54
2023-09-29T15:38:30.535Z,25.40
2023-09-29T15:40:57.192Z,25.48
2023-09-29T15:43:23.849Z,25.49
2023-09-29T15:45:51.114Z,25.41
2023-09-29T15:48:18.087Z,25.39
2023-09-29T15:50:45.270Z,25.22
2023-09-29T15:53:16.290Z,25.14
2023-09-29T15:55:44.136Z,25.16
2023-09-29T15:58:12.175Z,25.03
2023-09-29T16:00:39.483Z,25.02
2023-09-29T16:03:07.395Z,24.95
2023-09-29T16:05:35.268Z,24.89
2023-09-29T16:08:02.684Z,24.85
2023-09-29T16:10:30.113Z,24.75
2023-09-29T16:12:57.045Z,24.66
2023-09-29T16:15:25.326Z,24.68
2023-09-29T16:17:52.385Z,24.60
2023-09-29T16:20:19.472Z,24.52
2023-09-29T16:22:46.342Z,24.41
2023-09-29T16:25:13.338Z,24.28
2023-09-29T16:27:40.365Z,24.16
2023-09-29T16:30:08.092Z,24.03
2023-09-29T16:32:34.760Z,23.88
2023-09-29T16:35:02.419Z,23.75
2023-09-29T16:37:35.362Z,23.56
2023-09-29T16:40:14.771Z,23.43
2023-09-29T16:42:45.614Z,23.25
2023-09-29T16:45:15.037Z,23.12
2023-09-29T16:47:41.991Z,22.97
2023-09-29T16:50:09.128Z,22.81
2023-09-29T16:52:35.793Z,22.70
2023-09-29T16:55:02.385Z,22.55
2023-09-29T16:57:29.403Z,22.41
2023-09-29T16:59:57.164Z,22.30
2023-09-29T17:02:24.772Z,22.19
2023-09-29T17:04:51.652Z,22.16
2023-09-29T17:07:18.535Z,22.00
2023-09-29T17:09:45.420Z,21.92
2023-09-29T17:12:13.131Z,21.88
2023-09-29T17:14:41.250Z,21.86
2023-09-29T17:17:12.471Z,21.85
2023-09-29T17:19:39.464Z,21.81
2023-09-29T17:22:06.782Z,21.80
2023-09-29T17:24:36.217Z,21.78
2023-09-29T17:27:03.359Z,21.83
2023-09-29T17:29:33.365Z,21.75
2023-09-29T17:31:59.990Z,21.74
2023-09-29T17:34:26.741Z,21.72
2023-09-29T17:36:53.398Z,21.72
2023-09-29T17:39:20.343Z,21.78
2023-09-29T17:41:47.097Z,21.69
2023-09-29T17:44:15.086Z,21.70
2023-09-29T17:46:41.827Z,21.67
2023-09-29T17:49:08.677Z,21.64
2023-09-29T17:51:36.810Z,21.60
2023-09-29T17:54:04.167Z,21.60
2023-09-29T17:56:31.440Z,21.48
2023-09-29T17:59:01.189Z,21.44
2023-09-29T18:01:27.950Z,21.27
2023-09-29T18:03:55.828Z,21.18
2023-09-29T18:06:30.533Z,21.26
2023-09-29T18:08:57.511Z,21.31
2023-09-29T18:11:24.508Z,21.42
2023-09-29T18:13:51.232Z,21.47
2023-09-29T18:16:17.904Z,21.50
2023-09-29T18:18:44.603Z,21.57
2023-09-29T18:21:11.354Z,21.65
2023-09-29T18:23:38.454Z,21.71
2023-09-29T18:26:05.126Z,21.72
2023-09-29T18:28:36.057Z,21.77
2023-09-29T18:31:06.582Z,21.76
2023-09-29T18:33:33.404Z,21.79
2023-09-29T18:36:04.396Z,21.77
2023-09-29T18:38:31.286Z,21.80
2023-09-29T18:40:58.073Z,21.72
2023-09-29T18:43:24.729Z,21.77
2023-09-29T18:45:59.356Z,21.74
2023-09-29T18:48:26.425Z,21.72
2023-09-29T18:50:53.319Z,21.71
2023-09-29T18:53:20.288Z,21.58
2023-09-29T18:58:14.035Z,21.52
2023-09-29T19:00:41.423Z,21.48
2023-09-29T19:03:08.300Z,21.42
2023-09-29T19:05:36.380Z,21.45
2023-09-29T19:08:03.011Z,21.39
2023-09-29T19:10:29.626Z,21.38
2023-09-29T19:12:56.196Z,21.43
2023-09-29T19:15:22.889Z,21.29
2023-09-29T19:17:50.163Z,21.30
2023-09-29T19:20:17.907Z,21.26
2023-09-29T19:22:45.091Z,21.26
2023-09-29T19:25:11.946Z,21.15
2023-09-29T19:27:38.737Z,21.12
2023-09-29T19:30:07.027Z,21.15
2023-09-29T19:32:34.017Z,21.21
2023-09-29T19:35:00.726Z,21.08
2023-09-29T19:37:27.771Z,20.95
2023-09-29T19:39:54.475Z,20.96
2023-09-29T19:42:22.725Z,20.86
2023-09-29T19:44:50.201Z,20.76
2023-09-29T19:47:16.966Z,20.71
2023-09-29T19:49:43.740Z,20.63
2023-09-29T19:52:11.136Z,20.71
2023-09-29T19:54:40.970Z,20.71
2023-09-29T19:57:08.951Z,20.61
2023-09-29T19:59:35.640Z,20.64
2023-09-29T20:02:04.190Z,20.59
2023-09-29T20:04:31.370Z,20.32
2023-09-29T20:06:59.971Z,20.36
2023-09-29T20:09:27.134Z,20.39
2023-09-29T20:11:54.624Z,20.40
2023-09-29T20:14:21.352Z,20.31
2023-09-29T20:16:48.224Z,20.33
2023-09-29T20:19:15.236Z,20.19
2023-09-29T20:21:41.953Z,20.27
2023-09-29T20:24:10.649Z,20.22
2023-09-29T20:26:38.526Z,20.18
2023-09-29T20:29:05.188Z,20.06
2023-09-29T20:31:32.141Z,20.16
2023-09-29T20:34:00.726Z,20.12
2023-09-29T20:36:29.981Z,20.02
2023-09-29T20:38:57.514Z,20.11
2023-09-29T20:41:24.139Z,19.99
2023-09-29T20:43:51.013Z,19.91
2023-09-29T20:46:18.231Z,20.04
2023-09-29T20:48:47.565Z,19.89
2023-09-29T20:51:14.938Z,19.90
2023-09-29T20:53:42.126Z,19.99
2023-09-29T20:56:09.114Z,19.90
2023-09-29T20:58:35.758Z,19.84
2023-09-29T21:01:02.665Z,19.85
2023-09-29T21:03:29.417Z,19.86
2023-09-29T21:05:56.162Z,19.89
2023-09-29T21:08:23.191Z,19.78
2023-09-29T21:10:49.820Z,19.69
2023-09-29T21:13:16.465Z,19.64
2023-09-29T21:15:43.361Z,19.57
2023-09-29T21:18:10.736Z,19.24
2023-09-29T21:20:38.923Z,19.23
2023-09-29T21:23:05.560Z,19.19
2023-09-29T21:25:32.254Z,19.13
2023-09-29T21:27:59.042Z,19.13
2023-09-29T21:30:28.037Z,19.03
2023-09-29T21:32:54.820Z,19.10
2023-09-29T21:35:21.499Z,18.91
2023-09-29T21:37:48.304Z,18.98
2023-09-29T21:40:15.228Z,18.92
2023-09-29T21:42:41.953Z,18.83
2023-09-29T21:45:09.915Z,18.65
2023-09-29T21:47:36.684Z,18.75
2023-09-29T21:50:03.569Z,18.82
2023-09-29T21:52:30.677Z,18.57
2023-09-29T21:54:57.330Z,18.59
2023-09-29T21:57:24.276Z,18.45
2023-09-29T21:59:51.184Z,18.36
2023-09-29T22:02:18.420Z,18.30
2023-09-29T22:04:47.396Z,18.28
2023-09-29T22:07:14.974Z,18.27
2023-09-29T22:09:41.804Z,18.12
2023-09-29T22:12:08.494Z,17.95
2023-09-29T22:14:36.359Z,17.80
2023-09-29T22:17:03.285Z,17.70
2023-09-29T22:19:30.199Z,17.63
2023-09-29T22:21:56.870Z,17.55
2023-09-29T22:24:23.566Z,17.53
2023-09-29T22:26:51.770Z,17.50
2023-09-29T22:29:18.988Z,17.51
2023-09-29T22:31:45.756Z,17.41
2023-09-29T22:34:12.945Z,17.42
2023-09-29T22:36:39.697Z,17.48
2023-09-29T22:39:08.546Z,17.42
2023-09-29T22:41:35.200Z,17.36
2023-09-29T22:44:02.630Z,17.40
2023-09-29T22:46:29.255Z,17.30
2023-09-29T22:48:56.420Z,17.31
2023-09-29T22:51:23.184Z,17.25
2023-09-29T22:53:50.047Z,17.35
2023-09-29T22:56:16.853Z,17.28
2023-09-29T22:58:43.547Z,17.22
2023-09-29T23:01:10.487Z,17.31
2023-09-29T23:03:37.339Z,17.26
2023-09-29T23:06:04.389Z,17.19
2023-09-29T23:08:32.897Z,17.24
2023-09-29T23:11:02.694Z,17.16
2023-09-29T23:13:29.306Z,17.08
2023-09-29T23:15:55.922Z,17.06
2023-09-29T23:18:22.759Z,17.13
2023-09-29T23:20:52.412Z,17.05
2023-09-29T23:23:20.243Z,17.08
2023-09-29T23:25:47.569Z,17.06
2023-09-29T23:28:14.335Z,17.05
2023-09-29T23:30:41.698Z,16.97
2023-09-29T23:33:08.340Z,16.76
2023-09-29T23:35:38.058Z,16.76
2023-09-29T23:38:05.585Z,16.79
2023-09-29T23:40:32.263Z,16.64
2023-09-29T23:42:59.054Z,16.66
2023-09-29T23:45:26.392Z,16.58
2023-09-29T23:47:53.276Z,16.62
2023-09-29T23:50:20.432Z,16.58
2023-09-29T23:52:47.312Z,16.55
2023-09-29T23:55:14.435Z,16.47
2023-09-29T23:57:41.127Z,16.46
